sensor_id;sensor_type;location;lat;lon;timestamp;P1;durP1;ratioP1;P2;durP2;ratioP2
14001;SDS011;7076;51.280;12.584;2023-05-10T00:04:21;2.83;;;2.53;;
14001;SDS011;7076;51.280;12.584;2023-05-10T00:09:23;2.83;;;2.45;;
14001;SDS011;7076;51.280;12.584;2023-05-10T00:14:26;3.08;;;2.78;;
14001;SDS011;7076;51.280;12.584;2023-05-10T00:19:30;4.28;;;2.63;;
14001;SDS011;7076;51.280;12.584;2023-05-10T00:24:32;2.70;;;2.33;;
14001;SDS011;7076;51.280;12.584;2023-05-10T00:29:35;4.68;;;2.67;;
14001;SDS011;7076;51.280;12.584;2023-05-10T00:34:39;2.60;;;2.40;;
14001;SDS011;7076;51.280;12.584;2023-05-10T00:39:42;2.88;;;2.40;;
14001;SDS011;7076;51.280;12.584;2023-05-10T00:44:45;3.10;;;2.83;;
14001;SDS011;7076;51.280;12.584;2023-05-10T00:49:49;3.30;;;2.90;;
14001;SDS011;7076;51.280;12.584;2023-05-10T00:54:52;3.17;;;2.38;;
14001;SDS011;7076;51.280;12.584;2023-05-10T00:59:55;2.85;;;2.40;;
14001;SDS011;7076;51.280;12.584;2023-05-10T01:04:58;3.28;;;2.55;;
14001;SDS011;7076;51.280;12.584;2023-05-10T01:10:03;3.00;;;2.45;;
14001;SDS011;7076;51.280;12.584;2023-05-10T01:15:06;2.88;;;2.50;;
14001;SDS011;7076;51.280;12.584;2023-05-10T01:20:11;2.60;;;2.40;;
14001;SDS011;7076;51.280;12.584;2023-05-10T01:25:22;4.63;;;2.60;;
14001;SDS011;7076;51.280;12.584;2023-05-10T01:30:35;3.08;;;2.67;;
14001;SDS011;7076;51.280;12.584;2023-05-10T01:35:47;3.55;;;2.30;;
14001;SDS011;7076;51.280;12.584;2023-05-10T01:40:56;3.63;;;2.70;;
14001;SDS011;7076;51.280;12.584;2023-05-10T01:46:04;4.15;;;2.35;;
14001;SDS011;7076;51.280;12.584;2023-05-10T01:51:13;2.53;;;2.33;;
14001;SDS011;7076;51.280;12.584;2023-05-10T01:56:16;2.60;;;2.40;;
14001;SDS011;7076;51.280;12.584;2023-05-10T02:01:19;2.95;;;2.70;;
14001;SDS011;7076;51.280;12.584;2023-05-10T02:06:26;2.80;;;2.55;;
14001;SDS011;7076;51.280;12.584;2023-05-10T02:11:29;2.67;;;2.33;;
14001;SDS011;7076;51.280;12.584;2023-05-10T02:16:32;3.90;;;2.42;;
14001;SDS011;7076;51.280;12.584;2023-05-10T02:21:39;3.30;;;2.60;;
14001;SDS011;7076;51.280;12.584;2023-05-10T02:26:42;2.67;;;2.47;;
14001;SDS011;7076;51.280;12.584;2023-05-10T02:31:47;2.90;;;2.38;;
14001;SDS011;7076;51.280;12.584;2023-05-10T02:36:51;2.85;;;2.55;;
14001;SDS011;7076;51.280;12.584;2023-05-10T02:41:54;2.60;;;2.40;;
14001;SDS011;7076;51.280;12.584;2023-05-10T02:46:57;7.68;;;2.97;;
14001;SDS011;7076;51.280;12.584;2023-05-10T02:52:05;3.17;;;2.42;;
14001;SDS011;7076;51.280;12.584;2023-05-10T02:57:08;2.75;;;2.55;;
14001;SDS011;7076;51.280;12.584;2023-05-10T03:02:11;2.90;;;2.60;;
14001;SDS011;7076;51.280;12.584;2023-05-10T03:07:15;4.32;;;2.72;;
14001;SDS011;7076;51.280;12.584;2023-05-10T03:12:23;3.20;;;2.90;;
14001;SDS011;7076;51.280;12.584;2023-05-10T03:17:30;4.22;;;2.67;;
14001;SDS011;7076;51.280;12.584;2023-05-10T03:22:36;3.05;;;2.70;;
14001;SDS011;7076;51.280;12.584;2023-05-10T03:27:40;2.90;;;2.60;;
14001;SDS011;7076;51.280;12.584;2023-05-10T03:32:44;3.00;;;2.58;;
14001;SDS011;7076;51.280;12.584;2023-05-10T03:37:50;3.80;;;2.70;;
14001;SDS011;7076;51.280;12.584;2023-05-10T03:42:52;7.15;;;2.80;;
14001;SDS011;7076;51.280;12.584;2023-05-10T03:47:55;3.78;;;2.45;;
14001;SDS011;7076;51.280;12.584;2023-05-10T03:53:00;3.13;;;2.80;;
14001;SDS011;7076;51.280;12.584;2023-05-10T03:58:03;2.50;;;2.30;;
14001;SDS011;7076;51.280;12.584;2023-05-10T04:03:07;2.92;;;2.50;;
14001;SDS011;7076;51.280;12.584;2023-05-10T04:08:11;3.42;;;2.63;;
14001;SDS011;7076;51.280;12.584;2023-05-10T04:13:14;3.00;;;2.60;;
14001;SDS011;7076;51.280;12.584;2023-05-10T04:18:16;3.95;;;2.80;;
14001;SDS011;7076;51.280;12.584;2023-05-10T04:23:20;2.90;;;2.53;;
14001;SDS011;7076;51.280;12.584;2023-05-10T04:28:23;2.67;;;2.47;;
14001;SDS011;7076;51.280;12.584;2023-05-10T04:33:25;5.18;;;2.70;;
14001;SDS011;7076;51.280;12.584;2023-05-10T04:38:29;4.65;;;2.70;;
14001;SDS011;7076;51.280;12.584;2023-05-10T04:43:32;7.20;;;2.83;;
14001;SDS011;7076;51.280;12.584;2023-05-10T04:48:35;3.28;;;2.60;;
14001;SDS011;7076;51.280;12.584;2023-05-10T04:53:39;4.35;;;2.63;;
14001;SDS011;7076;51.280;12.584;2023-05-10T04:58:46;3.53;;;2.70;;
14001;SDS011;7076;51.280;12.584;2023-05-10T05:03:49;4.78;;;2.53;;
14001;SDS011;7076;51.280;12.584;2023-05-10T05:08:55;4.82;;;4.18;;
14001;SDS011;7076;51.280;12.584;2023-05-10T05:13:57;3.22;;;2.63;;
14001;SDS011;7076;51.280;12.584;2023-05-10T05:19:01;3.28;;;2.75;;
14001;SDS011;7076;51.280;12.584;2023-05-10T05:24:05;2.65;;;2.40;;
14001;SDS011;7076;51.280;12.584;2023-05-10T05:29:08;4.22;;;2.65;;
14001;SDS011;7076;51.280;12.584;2023-05-10T05:34:11;5.10;;;2.95;;
14001;SDS011;7076;51.280;12.584;2023-05-10T05:39:15;6.90;;;2.67;;
14001;SDS011;7076;51.280;12.584;2023-05-10T05:44:17;3.22;;;2.80;;
14001;SDS011;7076;51.280;12.584;2023-05-10T05:49:20;2.88;;;2.58;;
14001;SDS011;7076;51.280;12.584;2023-05-10T05:54:24;3.58;;;2.70;;
14001;SDS011;7076;51.280;12.584;2023-05-10T05:59:27;2.40;;;2.20;;
14001;SDS011;7076;51.280;12.584;2023-05-10T06:04:30;5.03;;;2.50;;
14001;SDS011;7076;51.280;12.584;2023-05-10T06:09:34;4.10;;;2.20;;
14001;SDS011;7076;51.280;12.584;2023-05-10T06:14:36;5.95;;;2.75;;
14001;SDS011;7076;51.280;12.584;2023-05-10T06:19:39;4.50;;;2.70;;
14001;SDS011;7076;51.280;12.584;2023-05-10T06:24:43;2.72;;;2.20;;
14001;SDS011;7076;51.280;12.584;2023-05-10T06:29:46;3.15;;;2.10;;
14001;SDS011;7076;51.280;12.584;2023-05-10T06:34:52;3.97;;;2.20;;
14001;SDS011;7076;51.280;12.584;2023-05-10T06:39:56;5.45;;;2.30;;
14001;SDS011;7076;51.280;12.584;2023-05-10T06:44:59;5.40;;;2.60;;
14001;SDS011;7076;51.280;12.584;2023-05-10T06:50:01;4.07;;;2.38;;
14001;SDS011;7076;51.280;12.584;2023-05-10T06:55:06;3.53;;;2.60;;
14001;SDS011;7076;51.280;12.584;2023-05-10T07:00:09;5.80;;;2.58;;
14001;SDS011;7076;51.280;12.584;2023-05-10T07:05:12;2.80;;;2.40;;
14001;SDS011;7076;51.280;12.584;2023-05-10T07:10:18;4.70;;;2.40;;
14001;SDS011;7076;51.280;12.584;2023-05-10T07:15:20;2.88;;;2.00;;
14001;SDS011;7076;51.280;12.584;2023-05-10T07:20:23;7.20;;;3.30;;
14001;SDS011;7076;51.280;12.584;2023-05-10T07:25:27;3.17;;;2.58;;
14001;SDS011;7076;51.280;12.584;2023-05-10T07:30:30;2.53;;;2.15;;
14001;SDS011;7076;51.280;12.584;2023-05-10T07:35:32;2.47;;;2.28;;
14001;SDS011;7076;51.280;12.584;2023-05-10T07:40:37;5.15;;;3.33;;
14001;SDS011;7076;51.280;12.584;2023-05-10T07:45:39;2.70;;;2.42;;
14001;SDS011;7076;51.280;12.584;2023-05-10T07:50:43;2.65;;;2.45;;
14001;SDS011;7076;51.280;12.584;2023-05-10T07:55:50;4.30;;;2.63;;
14001;SDS011;7076;51.280;12.584;2023-05-10T08:00:54;3.28;;;2.50;;
14001;SDS011;7076;51.280;12.584;2023-05-10T08:05:57;4.50;;;2.90;;
14001;SDS011;7076;51.280;12.584;2023-05-10T08:11:03;5.00;;;3.33;;
14001;SDS011;7076;51.280;12.584;2023-05-10T08:16:05;5.07;;;2.50;;
14001;SDS011;7076;51.280;12.584;2023-05-10T08:21:08;6.78;;;3.13;;
14001;SDS011;7076;51.280;12.584;2023-05-10T08:26:13;3.38;;;2.60;;
14001;SDS011;7076;51.280;12.584;2023-05-10T08:31:16;3.53;;;2.67;;
14001;SDS011;7076;51.280;12.584;2023-05-10T08:36:19;2.70;;;2.47;;
14001;SDS011;7076;51.280;12.584;2023-05-10T08:41:24;3.33;;;2.80;;
14001;SDS011;7076;51.280;12.584;2023-05-10T08:46:28;3.25;;;2.63;;
14001;SDS011;7076;51.280;12.584;2023-05-10T08:51:34;8.65;;;2.50;;
14001;SDS011;7076;51.280;12.584;2023-05-10T08:56:39;4.53;;;3.17;;
14001;SDS011;7076;51.280;12.584;2023-05-10T09:01:42;2.90;;;2.50;;
14001;SDS011;7076;51.280;12.584;2023-05-10T09:06:46;3.20;;;2.80;;
14001;SDS011;7076;51.280;12.584;2023-05-10T09:11:50;3.38;;;2.85;;
14001;SDS011;7076;51.280;12.584;2023-05-10T09:16:53;3.30;;;2.75;;
14001;SDS011;7076;51.280;12.584;2023-05-10T09:21:56;3.90;;;2.92;;
14001;SDS011;7076;51.280;12.584;2023-05-10T09:27:03;3.85;;;3.03;;
14001;SDS011;7076;51.280;12.584;2023-05-10T09:32:06;4.40;;;3.00;;
14001;SDS011;7076;51.280;12.584;2023-05-10T09:37:08;10.35;;;4.03;;
14001;SDS011;7076;51.280;12.584;2023-05-10T09:42:13;3.00;;;2.60;;
14001;SDS011;7076;51.280;12.584;2023-05-10T09:47:20;3.80;;;3.42;;
14001;SDS011;7076;51.280;12.584;2023-05-10T09:52:23;4.20;;;3.50;;
14001;SDS011;7076;51.280;12.584;2023-05-10T09:57:27;6.18;;;3.60;;
14001;SDS011;7076;51.280;12.584;2023-05-10T10:02:30;4.03;;;3.22;;
14001;SDS011;7076;51.280;12.584;2023-05-10T10:07:33;4.30;;;3.65;;
14001;SDS011;7076;51.280;12.584;2023-05-10T10:12:37;4.20;;;3.80;;
14001;SDS011;7076;51.280;12.584;2023-05-10T10:17:40;5.18;;;4.15;;
14001;SDS011;7076;51.280;12.584;2023-05-10T10:22:44;6.22;;;5.57;;
14001;SDS011;7076;51.280;12.584;2023-05-10T10:27:49;5.15;;;4.65;;
14001;SDS011;7076;51.280;12.584;2023-05-10T10:33:08;4.80;;;4.30;;
14001;SDS011;7076;51.280;12.584;2023-05-10T10:38:35;5.35;;;4.00;;
14001;SDS011;7076;51.280;12.584;2023-05-10T10:43:40;6.10;;;4.30;;
14001;SDS011;7076;51.280;12.584;2023-05-10T10:48:47;4.10;;;3.70;;
14001;SDS011;7076;51.280;12.584;2023-05-10T10:53:50;7.93;;;4.93;;
14001;SDS011;7076;51.280;12.584;2023-05-10T10:58:56;4.45;;;4.05;;
14001;SDS011;7076;51.280;12.584;2023-05-10T11:04:18;4.95;;;4.45;;
14001;SDS011;7076;51.280;12.584;2023-05-10T11:09:21;5.82;;;4.75;;
14001;SDS011;7076;51.280;12.584;2023-05-10T11:14:28;7.28;;;4.60;;
14001;SDS011;7076;51.280;12.584;2023-05-10T11:19:34;5.38;;;4.55;;
14001;SDS011;7076;51.280;12.584;2023-05-10T11:24:37;6.05;;;4.68;;
14001;SDS011;7076;51.280;12.584;2023-05-10T11:29:41;9.38;;;4.85;;
14001;SDS011;7076;51.280;12.584;2023-05-10T11:34:46;6.70;;;5.10;;
14001;SDS011;7076;51.280;12.584;2023-05-10T11:39:50;4.70;;;4.20;;
14001;SDS011;7076;51.280;12.584;2023-05-10T11:44:53;6.43;;;5.63;;
14001;SDS011;7076;51.280;12.584;2023-05-10T11:49:56;16.33;;;11.75;;
14001;SDS011;7076;51.280;12.584;2023-05-10T11:54:59;6.45;;;5.32;;
14001;SDS011;7076;51.280;12.584;2023-05-10T12:00:04;5.63;;;5.03;;
14001;SDS011;7076;51.280;12.584;2023-05-10T12:05:08;5.75;;;5.10;;
14001;SDS011;7076;51.280;12.584;2023-05-10T12:10:12;5.80;;;5.22;;
14001;SDS011;7076;51.280;12.584;2023-05-10T12:15:18;5.95;;;5.35;;
14001;SDS011;7076;51.280;12.584;2023-05-10T12:20:21;5.05;;;4.55;;
14001;SDS011;7076;51.280;12.584;2023-05-10T12:25:29;4.35;;;3.95;;
14001;SDS011;7076;51.280;12.584;2023-05-10T12:30:34;4.85;;;4.43;;
14001;SDS011;7076;51.280;12.584;2023-05-10T12:35:43;5.38;;;4.18;;
14001;SDS011;7076;51.280;12.584;2023-05-10T12:40:46;4.05;;;3.63;;
14001;SDS011;7076;51.280;12.584;2023-05-10T12:45:51;4.10;;;3.60;;
14001;SDS011;7076;51.280;12.584;2023-05-10T12:50:53;3.83;;;3.53;;
14001;SDS011;7076;51.280;12.584;2023-05-10T12:55:56;4.00;;;3.70;;
14001;SDS011;7076;51.280;12.584;2023-05-10T13:01:01;4.10;;;3.70;;
14001;SDS011;7076;51.280;12.584;2023-05-10T13:06:04;10.00;;;7.25;;
14001;SDS011;7076;51.280;12.584;2023-05-10T13:11:07;4.57;;;3.20;;
14001;SDS011;7076;51.280;12.584;2023-05-10T13:16:12;3.75;;;2.78;;
14001;SDS011;7076;51.280;12.584;2023-05-10T13:21:15;2.58;;;2.30;;
14001;SDS011;7076;51.280;12.584;2023-05-10T13:26:17;3.25;;;2.92;;
14001;SDS011;7076;51.280;12.584;2023-05-10T13:31:21;2.05;;;1.85;;
14001;SDS011;7076;51.280;12.584;2023-05-10T13:36:24;2.92;;;2.28;;
14001;SDS011;7076;51.280;12.584;2023-05-10T13:41:27;2.28;;;2.08;;
14001;SDS011;7076;51.280;12.584;2023-05-10T13:46:31;3.00;;;2.70;;
14001;SDS011;7076;51.280;12.584;2023-05-10T13:51:34;2.22;;;1.92;;
14001;SDS011;7076;51.280;12.584;2023-05-10T13:56:37;2.40;;;2.05;;
14001;SDS011;7076;51.280;12.584;2023-05-10T14:01:41;3.45;;;3.15;;
14001;SDS011;7076;51.280;12.584;2023-05-10T14:06:44;2.92;;;2.55;;
14001;SDS011;7076;51.280;12.584;2023-05-10T14:11:46;2.22;;;2.03;;
14001;SDS011;7076;51.280;12.584;2023-05-10T14:16:50;1.70;;;1.60;;
14001;SDS011;7076;51.280;12.584;2023-05-10T14:21:53;3.17;;;2.30;;
14001;SDS011;7076;51.280;12.584;2023-05-10T14:26:56;2.15;;;2.00;;
14001;SDS011;7076;51.280;12.584;2023-05-10T14:32:00;11.50;;;10.30;;
14001;SDS011;7076;51.280;12.584;2023-05-10T14:37:04;2.70;;;2.08;;
14001;SDS011;7076;51.280;12.584;2023-05-10T14:42:07;2.30;;;2.10;;
14001;SDS011;7076;51.280;12.584;2023-05-10T14:47:11;2.30;;;2.10;;
14001;SDS011;7076;51.280;12.584;2023-05-10T14:52:14;3.03;;;2.72;;
14001;SDS011;7076;51.280;12.584;2023-05-10T14:57:16;2.38;;;2.17;;
14001;SDS011;7076;51.280;12.584;2023-05-10T15:02:21;3.15;;;2.55;;
14001;SDS011;7076;51.280;12.584;2023-05-10T15:07:24;2.60;;;2.35;;
14001;SDS011;7076;51.280;12.584;2023-05-10T15:12:27;2.53;;;2.33;;
14001;SDS011;7076;51.280;12.584;2023-05-10T15:17:31;2.38;;;2.17;;
14001;SDS011;7076;51.280;12.584;2023-05-10T15:22:34;2.55;;;2.22;;
14001;SDS011;7076;51.280;12.584;2023-05-10T15:27:36;2.20;;;2.00;;
14001;SDS011;7076;51.280;12.584;2023-05-10T15:32:40;2.05;;;1.88;;
14001;SDS011;7076;51.280;12.584;2023-05-10T15:37:46;2.10;;;1.75;;
14001;SDS011;7076;51.280;12.584;2023-05-10T15:42:48;1.90;;;1.52;;
14001;SDS011;7076;51.280;12.584;2023-05-10T15:47:52;1.27;;;1.15;;
14001;SDS011;7076;51.280;12.584;2023-05-10T15:52:55;0.98;;;0.80;;
14001;SDS011;7076;51.280;12.584;2023-05-10T15:57:58;0.50;;;0.50;;
14001;SDS011;7076;51.280;12.584;2023-05-10T16:03:02;0.40;;;0.40;;
14001;SDS011;7076;51.280;12.584;2023-05-10T16:08:06;0.70;;;0.70;;
14001;SDS011;7076;51.280;12.584;2023-05-10T16:13:09;0.88;;;0.88;;
14001;SDS011;7076;51.280;12.584;2023-05-10T16:18:13;1.73;;;0.70;;
14001;SDS011;7076;51.280;12.584;2023-05-10T16:23:18;0.88;;;0.82;;
14001;SDS011;7076;51.280;12.584;2023-05-10T16:28:20;0.82;;;0.82;;
14001;SDS011;7076;51.280;12.584;2023-05-10T16:33:24;0.90;;;0.90;;
14001;SDS011;7076;51.280;12.584;2023-05-10T16:38:27;3.50;;;1.25;;
14001;SDS011;7076;51.280;12.584;2023-05-10T16:43:31;2.03;;;1.10;;
14001;SDS011;7076;51.280;12.584;2023-05-10T16:48:35;1.08;;;1.00;;
14001;SDS011;7076;51.280;12.584;2023-05-10T16:53:38;1.85;;;1.05;;
14001;SDS011;7076;51.280;12.584;2023-05-10T16:58:40;1.40;;;1.30;;
14001;SDS011;7076;51.280;12.584;2023-05-10T17:03:45;2.13;;;1.27;;
14001;SDS011;7076;51.280;12.584;2023-05-10T17:08:48;1.10;;;1.00;;
14001;SDS011;7076;51.280;12.584;2023-05-10T17:13:51;4.53;;;4.05;;
14001;SDS011;7076;51.280;12.584;2023-05-10T17:18:56;3.20;;;1.58;;
14001;SDS011;7076;51.280;12.584;2023-05-10T17:23:59;2.47;;;1.85;;
14001;SDS011;7076;51.280;12.584;2023-05-10T17:29:02;1.30;;;1.20;;
14001;SDS011;7076;51.280;12.584;2023-05-10T17:34:06;1.88;;;1.45;;
14001;SDS011;7076;51.280;12.584;2023-05-10T17:39:09;1.50;;;1.40;;
14001;SDS011;7076;51.280;12.584;2023-05-10T17:44:12;2.65;;;1.75;;
14001;SDS011;7076;51.280;12.584;2023-05-10T17:49:16;2.65;;;2.25;;
14001;SDS011;7076;51.280;12.584;2023-05-10T17:54:18;2.33;;;1.75;;
14001;SDS011;7076;51.280;12.584;2023-05-10T17:59:25;2.47;;;2.00;;
14001;SDS011;7076;51.280;12.584;2023-05-10T18:04:29;2.00;;;1.90;;
14001;SDS011;7076;51.280;12.584;2023-05-10T18:09:31;3.38;;;1.63;;
14001;SDS011;7076;51.280;12.584;2023-05-10T18:14:34;1.50;;;1.40;;
14001;SDS011;7076;51.280;12.584;2023-05-10T18:19:43;1.70;;;1.38;;
14001;SDS011;7076;51.280;12.584;2023-05-10T18:24:46;1.35;;;1.25;;
14001;SDS011;7076;51.280;12.584;2023-05-10T18:29:48;1.20;;;1.10;;
14001;SDS011;7076;51.280;12.584;2023-05-10T18:34:52;1.30;;;1.17;;
14001;SDS011;7076;51.280;12.584;2023-05-10T18:39:56;1.73;;;1.30;;
14001;SDS011;7076;51.280;12.584;2023-05-10T18:44:59;1.38;;;1.27;;
14001;SDS011;7076;51.280;12.584;2023-05-10T18:50:04;1.40;;;1.30;;
14001;SDS011;7076;51.280;12.584;2023-05-10T18:55:07;1.65;;;1.45;;
14001;SDS011;7076;51.280;12.584;2023-05-10T19:00:14;1.60;;;1.50;;
14001;SDS011;7076;51.280;12.584;2023-05-10T19:05:18;1.58;;;1.48;;
14001;SDS011;7076;51.280;12.584;2023-05-10T19:10:21;2.17;;;1.98;;
14001;SDS011;7076;51.280;12.584;2023-05-10T19:15:24;1.45;;;1.35;;
14001;SDS011;7076;51.280;12.584;2023-05-10T19:20:28;1.98;;;1.80;;
14001;SDS011;7076;51.280;12.584;2023-05-10T19:25:31;2.55;;;1.80;;
14001;SDS011;7076;51.280;12.584;2023-05-10T19:30:35;2.28;;;1.60;;
14001;SDS011;7076;51.280;12.584;2023-05-10T19:35:40;1.70;;;1.60;;
14001;SDS011;7076;51.280;12.584;2023-05-10T19:40:43;2.28;;;1.73;;
14001;SDS011;7076;51.280;12.584;2023-05-10T19:45:47;1.83;;;1.63;;
14001;SDS011;7076;51.280;12.584;2023-05-10T19:50:52;1.73;;;1.63;;
14001;SDS011;7076;51.280;12.584;2023-05-10T19:55:55;2.03;;;1.70;;
14001;SDS011;7076;51.280;12.584;2023-05-10T20:00:57;1.73;;;1.63;;
14001;SDS011;7076;51.280;12.584;2023-05-10T20:06:02;1.92;;;1.67;;
14001;SDS011;7076;51.280;12.584;2023-05-10T20:11:05;3.10;;;1.95;;
14001;SDS011;7076;51.280;12.584;2023-05-10T20:16:08;1.85;;;1.73;;
14001;SDS011;7076;51.280;12.584;2023-05-10T20:21:12;2.22;;;1.70;;
14001;SDS011;7076;51.280;12.584;2023-05-10T20:26:15;1.80;;;1.70;;
14001;SDS011;7076;51.280;12.584;2023-05-10T20:31:18;3.55;;;1.83;;
14001;SDS011;7076;51.280;12.584;2023-05-10T20:36:22;2.00;;;1.90;;
14001;SDS011;7076;51.280;12.584;2023-05-10T20:41:24;3.40;;;2.20;;
14001;SDS011;7076;51.280;12.584;2023-05-10T20:46:27;1.85;;;1.75;;
14001;SDS011;7076;51.280;12.584;2023-05-10T20:51:32;2.00;;;1.90;;
14001;SDS011;7076;51.280;12.584;2023-05-10T20:56:35;2.78;;;2.47;;
14001;SDS011;7076;51.280;12.584;2023-05-10T21:01:38;11.07;;;2.80;;
14001;SDS011;7076;51.280;12.584;2023-05-10T21:06:42;5.47;;;2.42;;
14001;SDS011;7076;51.280;12.584;2023-05-10T21:11:45;3.35;;;2.00;;
14001;SDS011;7076;51.280;12.584;2023-05-10T21:16:48;5.88;;;2.22;;
14001;SDS011;7076;51.280;12.584;2023-05-10T21:21:52;3.88;;;2.40;;
14001;SDS011;7076;51.280;12.584;2023-05-10T21:26:56;3.53;;;2.33;;
14001;SDS011;7076;51.280;12.584;2023-05-10T21:31:59;5.45;;;2.35;;
14001;SDS011;7076;51.280;12.584;2023-05-10T21:37:03;6.15;;;2.60;;
14001;SDS011;7076;51.280;12.584;2023-05-10T21:42:06;3.80;;;2.60;;
14001;SDS011;7076;51.280;12.584;2023-05-10T21:47:08;2.42;;;2.22;;
14001;SDS011;7076;51.280;12.584;2023-05-10T21:52:12;3.05;;;2.60;;
14001;SDS011;7076;51.280;12.584;2023-05-10T21:57:15;3.38;;;2.83;;
14001;SDS011;7076;51.280;12.584;2023-05-10T22:02:18;3.10;;;2.80;;
14001;SDS011;7076;51.280;12.584;2023-05-10T22:07:22;3.42;;;3.05;;
14001;SDS011;7076;51.280;12.584;2023-05-10T22:12:24;4.90;;;3.10;;
14001;SDS011;7076;51.280;12.584;2023-05-10T22:17:27;3.50;;;2.97;;
14001;SDS011;7076;51.280;12.584;2023-05-10T22:22:31;3.20;;;2.90;;
14001;SDS011;7076;51.280;12.584;2023-05-10T22:27:34;3.40;;;3.10;;
14001;SDS011;7076;51.280;12.584;2023-05-10T22:32:36;3.15;;;2.80;;
14001;SDS011;7076;51.280;12.584;2023-05-10T22:37:40;3.53;;;2.95;;
14001;SDS011;7076;51.280;12.584;2023-05-10T22:42:43;3.42;;;3.13;;
14001;SDS011;7076;51.280;12.584;2023-05-10T22:47:46;4.28;;;2.80;;
14001;SDS011;7076;51.280;12.584;2023-05-10T22:52:50;3.08;;;2.70;;
14001;SDS011;7076;51.280;12.584;2023-05-10T22:57:52;3.55;;;3.25;;
14001;SDS011;7076;51.280;12.584;2023-05-10T23:02:55;4.40;;;2.95;;
14001;SDS011;7076;51.280;12.584;2023-05-10T23:07:59;3.38;;;3.08;;
14001;SDS011;7076;51.280;12.584;2023-05-10T23:13:02;3.58;;;3.28;;
14001;SDS011;7076;51.280;12.584;2023-05-10T23:18:04;3.38;;;2.90;;
14001;SDS011;7076;51.280;12.584;2023-05-10T23:23:08;3.40;;;3.10;;
14001;SDS011;7076;51.280;12.584;2023-05-10T23:28:11;4.20;;;3.55;;
14001;SDS011;7076;51.280;12.584;2023-05-10T23:33:14;3.58;;;3.28;;
14001;SDS011;7076;51.280;12.584;2023-05-10T23:38:18;6.10;;;3.95;;
14001;SDS011;7076;51.280;12.584;2023-05-10T23:43:20;5.50;;;4.10;;
14001;SDS011;7076;51.280;12.584;2023-05-10T23:48:23;5.82;;;3.78;;
14001;SDS011;7076;51.280;12.584;2023-05-10T23:53:27;9.13;;;3.67;;
14001;SDS011;7076;51.280;12.584;2023-05-10T23:58:29;4.38;;;3.50;;
